Latest Weather Observations for Kurnell

IDN60901

Issued at 10:01 pm EDT Sunday 16 December 2018 (issued every 10 minutes, with the page automatically refreshed every 10 minutes)

About weather observations | Map of Sydney area stations | Latest observations for Sydney area | Other Formats
Station Details ID: 066043 Name: KURNELL AWS Lat: -34.00 Lon: 151.21 Height: 4.0 m
Data from the previous 72 hours. | See also: Recent months for locations in New South Wales
Date/Time
EDT
Temp
°C
App
Temp
°C
Dew
Point
°C
Rel
Hum
%
Delta-T
°C
Wind Press
QNH
hPa
Press
MSL
hPa
Rain since
9am
mm
Dir  Spd
km/h
Gust
km/h
Spd
kts
Gust
kts
16/10:00pm - - - - - NE 24 28 13 15 - - -
16/09:30pm - - - - - NNE 24 30 13 16 - - -
16/09:00pm - - - - - N 30 35 16 19 - - -
16/08:30pm - - - - - NNE 35 44 19 24 - - -
16/08:00pm - - - - - NNE 41 57 22 31 - - -
16/07:59pm - - - - - NNE 41 57 22 31 - - -
16/07:30pm - - - - - NE 56 65 30 35 - - -
16/07:00pm - - - - - NE 52 65 28 35 - - -
16/06:30pm - - - - - NE 54 65 29 35 - - -
16/06:10pm - - - - - NE 56 78 30 42 - - -
16/06:00pm - - - - - NE 50 63 27 34 - - -
16/05:30pm - - - - - NE 52 65 28 35 - - -
16/05:06pm - - - - - NE 57 76 31 41 - - -
16/05:00pm - - - - - NE 56 69 30 37 - - -
16/04:30pm - - - - - NE 57 70 31 38 - - -
16/04:20pm - - - - - NE 54 72 29 39 - - -
16/04:00pm - - - - - NE 48 57 26 31 - - -
16/03:30pm - - - - - NE 50 61 27 33 - - -
16/03:00pm - - - - - NE 46 56 25 30 - - -
16/02:30pm - - - - - NE 46 56 25 30 - - -
16/02:00pm - - - - - NE 39 48 21 26 - - -
16/01:30pm - - - - - NE 39 44 21 24 - - -
16/01:00pm - - - - - NE 44 54 24 29 - - -
16/12:30pm - - - - - NE 43 52 23 28 - - -
16/12:00pm - - - - - NE 44 52 24 28 - - -
16/11:30am - - - - - NE 35 43 19 23 - - -
16/11:00am - - - - - NE 24 28 13 15 - - -
16/10:30am - - - - - ENE 22 26 12 14 - - -
16/10:00am - - - - - NE 11 15 6 8 - - -
16/09:30am - - - - - NNE 13 17 7 9 - - -
16/09:00am - - - - - NNE 20 26 11 14 - - -
16/08:30am - - - - - NNE 15 17 8 9 - - -
16/08:00am - - - - - NNE 13 17 7 9 - - -
16/07:30am - - - - - NE 17 19 9 10 - - -
16/07:00am - - - - - NE 19 22 10 12 - - -
16/06:30am - - - - - NNE 17 22 9 12 - - -
16/06:00am - - - - - NNE 17 19 9 10 - - -
16/05:30am - - - - - NE 15 17 8 9 - - -
16/05:00am - - - - - NE 17 19 9 10 - - -
16/04:30am - - - - - NNE 19 26 10 14 - - -
16/04:00am - - - - - NE 22 30 12 16 - - -
16/03:56am - - - - - ENE 19 30 10 16 - - -
16/03:30am - - - - - NE 7 9 4 5 - - -
16/03:00am - - - - - NNE 6 11 3 6 - - -
16/02:30am - - - - - NE 13 15 7 8 - - -
16/02:00am - - - - - NE 17 19 9 10 - - -
16/01:30am - - - - - NE 15 19 8 10 - - -
16/01:00am - - - - - N 17 22 9 12 - - -
16/12:30am - - - - - N 30 35 16 19 - - -
16/12:00am - - - - - N 26 33 14 18 - - -
 
Date/Time
EDT
Temp
°C
App
Temp
°C
Dew
Point
°C
Rel
Hum
%
Delta-T
°C
Wind Press
QNH
hPa
Press
MSL
hPa
Rain since
9am
mm
Dir  Spd
km/h
Gust
km/h
Spd
kts
Gust
kts
15/11:30pm - - - - - NNE 35 44 19 24 - - -
15/11:00pm - - - - - NNE 24 32 13 17 - - -
15/10:30pm - - - - - NNE 35 44 19 24 - - -
15/10:00pm - - - - - NE 35 54 19 29 - - -
15/09:59pm - - - - - NE 33 50 18 27 - - -
15/09:30pm - - - - - NE 22 28 12 15 - - -
15/09:00pm - - - - - NNE 28 32 15 17 - - -
15/08:30pm - - - - - N 33 48 18 26 - - -
15/08:09pm - - - - - NE 37 56 20 30 - - -
15/08:00pm - - - - - NE 46 54 25 29 - - -
15/07:30pm - - - - - NE 46 57 25 31 - - -
15/07:00pm - - - - - NE 39 52 21 28 - - -
15/06:30pm - - - - - E 28 48 15 26 - - -
15/06:00pm - - - - - N 22 35 12 19 - - -
15/05:49pm - - - - - NNW 41 59 22 32 - - -
15/05:38pm - - - - - NNE 44 57 24 31 - - -
15/05:30pm - - - - - NE 48 57 26 31 - - -
15/05:17pm - - - - - NE 44 63 24 34 - - -
15/05:00pm - - - - - NNE 41 56 22 30 - - -
15/04:30pm - - - - - ENE 43 57 23 31 - - -
15/04:00pm - - - - - ENE 37 44 20 24 - - -
15/03:30pm - - - - - ENE 39 48 21 26 - - -
15/03:00pm - - - - - NE 35 44 19 24 - - -
15/02:30pm - - - - - ENE 33 37 18 20 - - -
15/02:00pm - - - - - NE 33 39 18 21 - - -
15/01:30pm - - - - - NE 30 35 16 19 - - -
15/01:00pm - - - - - NE 32 37 17 20 - - -
15/12:30pm - - - - - NE 28 35 15 19 - - -
15/12:00pm - - - - - ENE 26 30 14 16 - - -
15/11:30am - - - - - NE 19 24 10 13 - - -
15/11:00am - - - - - ENE 15 19 8 10 - - -
15/10:30am - - - - - NE 24 30 13 16 - - -
15/10:00am - - - - - ENE 19 26 10 14 - - -
15/09:30am - - - - - E 17 24 9 13 - - -
15/09:00am - - - - - ENE 13 17 7 9 - - -
15/08:30am - - - - - E 13 17 7 9 - - -
15/08:00am - - - - - NE 11 13 6 7 - - -
15/07:30am - - - - - NE 7 9 4 5 - - -
15/07:00am - - - - - NE 11 15 6 8 - - -
15/06:30am - - - - - NE 17 19 9 10 - - -
15/06:00am - - - - - E 7 9 4 5 - - -
15/05:30am - - - - - NE 7 9 4 5 - - -
15/05:00am - - - - - N 11 13 6 7 - - -
15/04:30am - - - - - NNE 19 24 10 13 - - -
15/04:00am - - - - - NE 19 22 10 12 - - -
15/03:30am - - - - - NNE 17 20 9 11 - - -
15/03:00am - - - - - NNE 19 26 10 14 - - -
15/02:30am - - - - - SSE 7 11 4 6 - - -
15/02:00am - - - - - SSE 7 9 4 5 - - -
15/01:30am - - - - - SSE 7 11 4 6 - - -
15/01:00am - - - - - SSE 9 13 5 7 - - -
15/12:30am - - - - - SE 6 7 3 4 - - -
15/12:00am - - - - - SE 2 7 1 4 - - -
 
Date/Time
EDT
Temp
°C
App
Temp
°C
Dew
Point
°C
Rel
Hum
%
Delta-T
°C
Wind Press
QNH
hPa
Press
MSL
hPa
Rain since
9am
mm
Dir  Spd
km/h
Gust
km/h
Spd
kts
Gust
kts
14/11:30pm - - - - - ENE 9 13 5 7 - - -
14/11:00pm - - - - - SSE 11 13 6 7 - - -
14/10:30pm - - - - - S 13 17 7 9 - - -
14/10:00pm - - - - - S 9 13 5 7 - - -
14/09:30pm - - - - - SSE 13 17 7 9 - - -
14/09:00pm - - - - - S 15 19 8 10 - - -
14/08:30pm - - - - - S 15 19 8 10 - - -
14/08:00pm - - - - - S 17 22 9 12 - - -
14/07:30pm - - - - - S 17 24 9 13 - - -
14/07:00pm - - - - - SSE 22 30 12 16 - - -
14/06:30pm - - - - - SSE 20 30 11 16 - - -
14/06:00pm - - - - - S 22 28 12 15 - - -
14/05:30pm - - - - - S 19 24 10 13 - - -
14/05:00pm - - - - - S 28 35 15 19 - - -
14/04:30pm - - - - - SSE 17 24 9 13 - - -
14/04:00pm - - - - - S 13 17 7 9 - - -
14/03:30pm - - - - - S 20 30 11 16 - - -
14/03:00pm - - - - - S 26 32 14 17 - - -
14/02:30pm - - - - - S 20 28 11 15 - - -
14/02:00pm - - - - - SSE 17 19 9 10 - - -
14/01:30pm - - - - - SE 19 26 10 14 - - -
14/01:00pm - - - - - S 17 22 9 12 - - -
14/12:30pm - - - - - SSW 17 20 9 11 - - -
14/12:00pm - - - - - S 17 22 9 12 - - -
14/11:30am - - - - - SSW 19 24 10 13 - - -
14/11:00am - - - - - S 19 24 10 13 - - -
14/10:30am - - - - - S 19 22 10 12 - - -
14/10:00am - - - - - S 15 20 8 11 - - -
14/09:30am - - - - - SW 17 20 9 11 - - -
14/09:00am - - - - - SSW 19 24 10 13 - - -
14/08:30am - - - - - S 20 26 11 14 - - -
14/08:00am - - - - - SSW 20 26 11 14 - - -
14/07:30am - - - - - SSW 17 19 9 10 - - -
14/07:00am - - - - - SSW 17 20 9 11 - - -
14/06:30am - - - - - SSW 13 17 7 9 - - -
14/06:00am - - - - - SSW 13 19 7 10 - - -
14/05:30am - - - - - SW 13 17 7 9 - - -
14/05:00am - - - - - S 17 20 9 11 - - -
14/04:30am - - - - - SSW 17 26 9 14 - - -
14/04:00am - - - - - SSW 17 19 9 10 - - -
14/03:30am - - - - - S 11 15 6 8 - - -
14/03:00am - - - - - SSW 15 17 8 9 - - -
14/02:30am - - - - - S 9 11 5 6 - - -
14/02:00am - - - - - SSE 9 11 5 6 - - -
14/01:30am - - - - - SSW 7 9 4 5 - - -
14/01:00am - - - - - CALM 0 0 0 0 - - -
14/12:30am - - - - - CALM 0 0 0 0 - - -
14/12:00am - - - - - CALM 0 6 0 3 - - -
 
Date/Time
EDT
Temp
°C
App
Temp
°C
Dew
Point
°C
Rel
Hum
%
Delta-T
°C
Wind Press
QNH
hPa
Press
MSL
hPa
Rain since
9am
mm
Dir  Spd
km/h
Gust
km/h
Spd
kts
Gust
kts
13/11:30pm - - - - - S 7 9 4 5 - - -
13/11:00pm - - - - - SSW 7 11 4 6 - - -
13/10:30pm - - - - - SSE 9 15 5 8 - - -

Latest Capital City Observations: Canberra | Sydney | Melbourne | Brisbane | Adelaide | Perth | Hobart | Darwin

Other Formats:

Comma delimited format used in spreadsheet applications
http://www.bom.gov.au/fwo/IDN60901/IDN60901.95756.axf

JavaScript Object Notation format (JSON) in row-major order
http://www.bom.gov.au/fwo/IDN60901/IDN60901.95756.json